Time;durP1;ratioP1;P1;durP2;ratioP2;P2;SDS_P1;SDS_P2;PMS_P1;PMS_P2;Temp;Humidity;BMP_temperature;BMP_pressure;BME280_temperature;BME280_humidity;BME280_pressure;Samples;Min_cycle;Max_cycle;Signal;HPM_P1;HPM_P2
2022/01/27 00:05:25;;;;;;;45.00;22.50;;;0.00;99.90;;;;;;5022312;28;20406;-77
2022/01/27 00:08:14;;;;;;;50.72;23.60;;;-0.10;99.90;;;;;;5022947;28;20080;-77
2022/01/27 00:13:12;;;;;;;49.60;20.95;;;-0.10;99.90;;;;;;5036235;28;20014;-78
2022/01/27 00:15:39;;;;;;;50.95;23.02;;;-0.10;99.90;;;;;;5023961;28;20037;-78
2022/01/27 00:18:13;;;;;;;47.72;20.98;;;-0.10;99.90;;;;;;5018071;28;20478;-78
2022/01/27 00:20:39;;;;;;;47.28;21.25;;;0.00;99.90;;;;;;5017945;28;20014;-78
2022/01/27 00:23:05;;;;;;;47.70;22.35;;;0.10;99.90;;;;;;5017689;28;20034;-78
2022/01/27 00:25:30;;;;;;;49.88;21.08;;;0.00;99.90;;;;;;5021054;28;20195;-78
2022/01/27 00:27:56;;;;;;;49.38;22.75;;;0.00;99.90;;;;;;5028358;28;20041;-77
2022/01/27 00:30:21;;;;;;;47.78;21.63;;;0.10;99.90;;;;;;5036418;28;20070;-77
2022/01/27 00:32:47;;;;;;;45.80;22.20;;;0.00;99.90;;;;;;5035989;28;20030;-77
2022/01/27 00:35:13;;;;;;;42.08;22.25;;;0.00;99.90;;;;;;5036047;28;20089;-76
2022/01/27 00:37:38;;;;;;;55.80;22.80;;;0.00;99.90;;;;;;5037045;28;20041;-75
2022/01/27 00:40:06;;;;;;;46.13;21.42;;;0.10;99.90;;;;;;5051351;28;20102;-76
2022/01/27 00:42:32;;;;;;;52.85;22.92;;;0.10;99.90;;;;;;5035717;28;20031;-77
2022/01/27 00:44:58;;;;;;;47.75;21.52;;;0.20;99.90;;;;;;5018440;28;20088;-76
2022/01/27 00:47:24;;;;;;;44.80;21.77;;;0.40;99.90;;;;;;5019499;28;20113;-78
2022/01/27 00:49:50;;;;;;;53.08;24.58;;;0.30;99.90;;;;;;5020055;28;20034;-77
2022/01/27 00:52:23;;;;;;;49.78;21.08;;;0.20;99.90;;;;;;5016959;28;20025;-77
2022/01/27 00:54:51;;;;;;;43.08;19.65;;;0.50;99.90;;;;;;5032314;28;20028;-77
2022/01/27 00:57:34;;;;;;;43.78;19.50;;;0.60;99.90;;;;;;5017219;28;20076;-78
2022/01/27 01:00:03;;;;;;;52.22;24.30;;;0.70;99.90;;;;;;5017274;28;20049;-77
2022/01/27 01:02:47;;;;;;;49.75;19.83;;;0.70;99.90;;;;;;5016702;28;20441;-78
2022/01/27 01:08:09;;;;;;;40.60;20.30;;;0.40;99.90;;;;;;5015692;28;20536;-78
2022/01/27 01:11:24;;;;;;;42.95;21.33;;;0.20;99.90;;;;;;5016734;28;20061;-78
2022/01/27 01:15:58;;;;;;;40.70;19.40;;;0.50;99.90;;;;;;5015802;28;20092;-76
2022/01/27 01:21:23;;;;;;;44.88;20.10;;;0.40;99.90;;;;;;5016330;28;20030;-77
2022/01/27 01:34:28;;;;;;;34.70;18.83;;;0.80;99.90;;;;;;5017073;28;20034;-78
2022/01/27 01:39:23;;;;;;;34.38;17.95;;;1.00;99.90;;;;;;5049749;23;20416;-73
2022/01/27 01:41:50;;;;;;;38.13;17.77;;;1.00;99.90;;;;;;5036326;28;20370;-73
2022/01/27 01:44:16;;;;;;;35.42;19.25;;;1.00;99.90;;;;;;5035294;28;20067;-72
2022/01/27 01:46:41;;;;;;;34.72;18.45;;;0.90;99.90;;;;;;5034314;28;20018;-73
2022/01/27 01:49:07;;;;;;;31.33;16.83;;;0.70;99.90;;;;;;5034031;28;20021;-73
2022/01/27 01:51:35;;;;;;;34.35;17.33;;;0.60;99.90;;;;;;5033863;28;20029;-73
2022/01/27 01:54:01;;;;;;;34.50;18.05;;;0.60;99.90;;;;;;5034003;28;20550;-72
2022/01/27 01:56:26;;;;;;;31.52;17.20;;;0.80;99.90;;;;;;5034686;28;20037;-74
2022/01/27 01:58:52;;;;;;;31.67;18.50;;;0.80;99.90;;;;;;5035066;28;20029;-72
2022/01/27 02:01:18;;;;;;;35.17;19.33;;;0.80;99.90;;;;;;5034210;28;20030;-72
2022/01/27 02:03:45;;;;;;;29.00;17.42;;;1.00;99.90;;;;;;5033409;28;20022;-73
2022/01/27 02:06:23;;;;;;;33.58;16.63;;;0.80;99.90;;;;;;5034123;28;20524;-72
2022/01/27 02:09:50;;;;;;;30.33;17.52;;;0.60;99.90;;;;;;5033802;28;20104;-72
2022/01/27 02:19:53;;;;;;;33.90;18.30;;;0.60;99.90;;;;;;5032854;28;20087;-72
2022/01/27 02:22:21;;;;;;;31.05;17.45;;;0.60;99.90;;;;;;5032697;28;20036;-72
2022/01/27 02:24:47;;;;;;;33.63;17.67;;;0.50;99.90;;;;;;5033485;28;20435;-72
2022/01/27 02:27:15;;;;;;;35.92;19.85;;;0.50;99.90;;;;;;5032819;28;20476;-72
2022/01/27 02:29:41;;;;;;;30.60;17.40;;;0.50;99.90;;;;;;5032928;28;20068;-72
2022/01/27 02:32:07;;;;;;;30.45;17.05;;;0.60;99.90;;;;;;5032723;28;20485;-72
2022/01/27 02:34:33;;;;;;;30.92;18.33;;;0.60;99.90;;;;;;5032849;28;20501;-71
2022/01/27 02:36:59;;;;;;;29.45;18.15;;;0.60;99.90;;;;;;5032762;28;20042;-72
2022/01/27 02:39:25;;;;;;;27.23;15.35;;;0.50;99.90;;;;;;5032576;28;20040;-72
2022/01/27 02:41:51;;;;;;;29.15;16.85;;;0.70;99.90;;;;;;5032874;28;20079;-73
2022/01/27 02:44:26;;;;;;;32.20;17.20;;;0.60;99.90;;;;;;5034039;28;20025;-72
2022/01/27 02:46:52;;;;;;;32.10;17.42;;;0.60;99.90;;;;;;5033143;28;20021;-72
2022/01/27 02:49:18;;;;;;;35.88;17.92;;;0.50;99.90;;;;;;5032691;28;20108;-72
2022/01/27 02:51:44;;;;;;;28.27;16.20;;;0.60;99.90;;;;;;5036678;28;20398;-71
2022/01/27 02:54:09;;;;;;;29.83;16.15;;;0.70;99.90;;;;;;5033552;28;20120;-72
2022/01/27 02:56:42;;;;;;;33.53;18.88;;;0.60;99.90;;;;;;5033009;28;20066;-72
2022/01/27 02:59:07;;;;;;;27.73;15.60;;;0.50;99.90;;;;;;5033753;28;20048;-72
2022/01/27 03:01:33;;;;;;;31.00;16.85;;;0.50;99.90;;;;;;5034079;28;20029;-72
2022/01/27 03:03:58;;;;;;;34.75;17.95;;;0.60;99.90;;;;;;5049801;28;20034;-72
2022/01/27 03:06:24;;;;;;;28.88;16.77;;;0.80;99.90;;;;;;5041689;28;20053;-73
2022/01/27 03:08:49;;;;;;;37.45;18.92;;;1.00;99.90;;;;;;5032784;28;20037;-73
2022/01/27 03:11:47;;;;;;;31.70;18.50;;;0.90;99.90;;;;;;5032308;28;20024;-73
2022/01/27 03:14:15;;;;;;;30.17;17.85;;;0.90;99.90;;;;;;5032425;28;20029;-73
2022/01/27 03:16:41;;;;;;;30.38;18.17;;;0.90;99.90;;;;;;5031034;28;20033;-73
2022/01/27 03:19:07;;;;;;;29.60;18.23;;;0.70;99.90;;;;;;5032144;28;20486;-72
2022/01/27 03:21:33;;;;;;;29.65;16.60;;;0.80;99.90;;;;;;5032126;28;20032;-73
2022/01/27 03:23:58;;;;;;;33.60;17.63;;;0.60;99.90;;;;;;5032052;28;20072;-72
2022/01/27 03:26:25;;;;;;;29.42;17.05;;;0.40;99.90;;;;;;5032378;28;20026;-72
2022/01/27 03:28:50;;;;;;;29.50;16.60;;;0.40;99.90;;;;;;5030899;28;20038;-73
2022/01/27 03:31:16;;;;;;;26.50;15.93;;;0.30;99.90;;;;;;5033447;28;20018;-73
2022/01/27 03:33:43;;;;;;;29.42;16.05;;;0.20;99.90;;;;;;5035925;28;20029;-72
2022/01/27 03:36:10;;;;;;;31.60;16.85;;;0.20;99.90;;;;;;5034810;28;20029;-72
2022/01/27 03:38:36;;;;;;;32.72;16.83;;;0.20;99.90;;;;;;5033857;28;20045;-73
2022/01/27 03:41:06;;;;;;;31.83;17.20;;;0.30;99.90;;;;;;5034743;28;20029;-71
2022/01/27 03:43:32;;;;;;;28.77;16.58;;;0.40;99.90;;;;;;5033204;28;20025;-72
2022/01/27 03:45:57;;;;;;;27.92;16.38;;;0.40;99.90;;;;;;5034749;28;20036;-73
2022/01/27 03:48:23;;;;;;;31.52;17.05;;;0.30;99.90;;;;;;5034905;28;20378;-73
2022/01/27 03:50:49;;;;;;;30.77;16.40;;;0.30;99.90;;;;;;5051327;28;20037;-72
2022/01/27 03:53:15;;;;;;;26.95;15.60;;;0.30;99.90;;;;;;5053548;28;20109;-71
2022/01/27 03:55:41;;;;;;;26.33;15.52;;;0.30;99.90;;;;;;5037725;28;20034;-72
2022/01/27 03:58:07;;;;;;;30.73;17.88;;;0.30;99.90;;;;;;5035232;28;20029;-72
2022/01/27 04:00:33;;;;;;;29.52;16.85;;;0.30;99.90;;;;;;5034496;28;20036;-71
2022/01/27 04:03:18;;;;;;;30.77;17.13;;;0.20;99.90;;;;;;5034405;28;20108;-71
2022/01/27 04:05:55;;;;;;;28.27;16.80;;;0.20;99.90;;;;;;5034597;28;20448;-72
2022/01/27 04:08:22;;;;;;;30.50;17.05;;;0.30;99.90;;;;;;5033253;28;20049;-72
2022/01/27 04:10:48;;;;;;;29.13;17.77;;;0.30;99.90;;;;;;5032953;28;20025;-72
2022/01/27 04:13:14;;;;;;;31.05;18.50;;;0.30;99.90;;;;;;5034239;28;20104;-73
2022/01/27 04:15:42;;;;;;;30.02;17.52;;;0.30;99.90;;;;;;5032631;28;20295;-73
2022/01/27 04:18:09;;;;;;;30.90;17.60;;;0.30;99.90;;;;;;5036487;28;20108;-72
2022/01/27 04:20:34;;;;;;;34.58;19.58;;;0.30;99.90;;;;;;5053946;28;20101;-72
2022/01/27 04:23:00;;;;;;;36.17;20.88;;;0.30;99.90;;;;;;5049982;28;20033;-73
2022/01/27 04:25:26;;;;;;;30.95;18.75;;;0.30;99.90;;;;;;5043073;28;20527;-72
2022/01/27 04:27:56;;;;;;;31.00;18.70;;;0.30;99.90;;;;;;5037874;28;20524;-73
2022/01/27 04:30:24;;;;;;;28.35;16.42;;;0.40;99.90;;;;;;5035898;28;20025;-72
2022/01/27 04:32:53;;;;;;;32.28;17.30;;;0.30;99.90;;;;;;5038541;28;20044;-73
2022/01/27 04:35:21;;;;;;;33.72;17.63;;;0.40;99.90;;;;;;5041343;28;20034;-73
2022/01/27 04:38:11;;;;;;;29.90;18.27;;;0.40;99.90;;;;;;5002160;28;1071618;-73
2022/01/27 04:40:46;;;;;;;34.25;16.52;;;0.30;99.90;;;;;;5036703;28;20043;-73
2022/01/27 04:43:30;;;;;;;31.70;17.48;;;0.30;99.90;;;;;;5036436;28;20036;-73
2022/01/27 04:48:34;;;;;;;30.45;17.55;;;0.40;99.90;;;;;;5038369;28;20036;-74
2022/01/27 04:51:06;;;;;;;33.20;19.23;;;0.40;99.90;;;;;;5044032;28;20025;-72
2022/01/27 04:53:37;;;;;;;27.38;16.83;;;0.40;99.90;;;;;;5043673;28;20025;-72
2022/01/27 04:56:03;;;;;;;30.10;18.27;;;0.30;99.90;;;;;;5047713;28;20032;-71
2022/01/27 04:58:34;;;;;;;32.15;17.65;;;0.30;99.90;;;;;;5055942;28;20041;-71
2022/01/27 05:01:02;;;;;;;31.00;18.48;;;0.30;99.90;;;;;;5051064;28;20025;-72
2022/01/27 05:03:52;;;;;;;30.70;18.27;;;0.20;99.90;;;;;;5044530;28;20037;-73
2022/01/27 05:06:16;;;;;;;30.67;18.92;;;0.30;99.90;;;;;;5047164;28;20025;-71
2022/01/27 05:08:42;;;;;;;29.92;18.13;;;0.30;99.90;;;;;;5054934;28;20025;-71
2022/01/27 05:11:22;;;;;;;30.20;17.80;;;0.30;99.90;;;;;;5054517;28;20085;-72
2022/01/27 05:16:19;;;;;;;33.47;19.80;;;0.20;99.90;;;;;;5056959;28;20030;-72
2022/01/27 05:18:45;;;;;;;31.30;17.58;;;0.30;99.90;;;;;;5040518;28;20036;-72
2022/01/27 05:21:11;;;;;;;31.23;18.02;;;0.30;99.90;;;;;;5039128;28;20025;-72
2022/01/27 05:23:36;;;;;;;34.78;19.55;;;0.30;99.90;;;;;;5035838;28;20120;-72
2022/01/27 05:26:02;;;;;;;34.13;19.25;;;0.30;99.90;;;;;;5035467;28;20030;-73
2022/01/27 05:28:27;;;;;;;33.15;19.65;;;0.30;99.90;;;;;;5036643;28;20022;-72
2022/01/27 05:30:53;;;;;;;32.15;18.60;;;0.30;99.90;;;;;;5035700;28;20428;-72
2022/01/27 05:33:19;;;;;;;30.80;17.95;;;0.30;99.90;;;;;;5035395;28;20551;-72
2022/01/27 05:35:45;;;;;;;29.75;17.38;;;0.30;99.90;;;;;;5035606;28;20056;-72
2022/01/27 05:38:16;;;;;;;29.33;17.67;;;0.30;99.90;;;;;;5035191;28;20488;-71
2022/01/27 05:40:43;;;;;;;32.20;20.25;;;0.30;99.90;;;;;;5034484;28;20071;-73
2022/01/27 05:43:09;;;;;;;33.83;18.42;;;0.30;99.90;;;;;;5034630;28;20037;-72
2022/01/27 05:45:35;;;;;;;33.15;19.48;;;0.40;99.90;;;;;;5036834;28;20063;-72
2022/01/27 05:48:01;;;;;;;32.95;19.73;;;0.30;99.90;;;;;;5055342;28;20033;-73
2022/01/27 05:50:26;;;;;;;35.38;20.63;;;0.40;99.90;;;;;;5040475;28;20057;-72
2022/01/27 05:52:52;;;;;;;33.33;19.48;;;0.40;99.90;;;;;;5034873;28;20021;-73
2022/01/27 05:55:17;;;;;;;28.70;17.25;;;0.40;99.90;;;;;;5034813;28;20116;-74
2022/01/27 05:57:43;;;;;;;29.10;16.25;;;0.30;99.90;;;;;;5036708;28;20068;-72
2022/01/27 06:00:10;;;;;;;28.70;18.10;;;0.30;99.90;;;;;;5037050;28;20057;-73
2022/01/27 06:02:36;;;;;;;27.83;17.98;;;0.40;99.90;;;;;;5034446;28;20025;-73
2022/01/27 06:05:03;;;;;;;34.13;20.00;;;0.40;99.90;;;;;;5036461;28;20071;-72
2022/01/27 06:07:29;;;;;;;35.55;20.13;;;0.30;99.90;;;;;;5034450;28;20105;-73
2022/01/27 06:09:55;;;;;;;33.38;19.67;;;0.30;99.90;;;;;;5034856;28;20017;-72
2022/01/27 06:12:21;;;;;;;34.92;20.73;;;0.30;99.90;;;;;;5033939;28;20021;-73
2022/01/27 06:14:47;;;;;;;35.67;19.00;;;0.40;99.90;;;;;;5032139;28;20469;-72
2022/01/27 06:17:12;;;;;;;39.33;21.77;;;0.40;99.90;;;;;;5041231;28;20029;-72
2022/01/27 06:19:38;;;;;;;30.33;17.92;;;0.40;99.90;;;;;;5036943;28;20025;-72
2022/01/27 06:22:11;;;;;;;41.70;20.40;;;0.40;99.90;;;;;;5033564;28;20026;-72
2022/01/27 06:24:46;;;;;;;37.00;19.58;;;0.40;99.90;;;;;;5033578;28;20025;-72
2022/01/27 06:27:12;;;;;;;37.08;20.00;;;0.30;99.90;;;;;;5033612;28;20113;-72
2022/01/27 06:29:39;;;;;;;31.95;19.17;;;0.30;99.90;;;;;;5033814;28;20128;-72
2022/01/27 06:32:05;;;;;;;35.55;20.08;;;0.30;99.90;;;;;;5033564;28;20021;-74
2022/01/27 06:34:31;;;;;;;31.58;19.00;;;0.20;99.90;;;;;;5032944;28;20440;-72
2022/01/27 06:36:57;;;;;;;30.08;17.95;;;0.30;99.90;;;;;;5035082;28;20025;-72
2022/01/27 06:39:23;;;;;;;32.85;18.83;;;0.30;99.90;;;;;;5016017;28;20040;-71
2022/01/27 06:41:49;;;;;;;32.28;18.50;;;0.20;99.90;;;;;;5033412;28;20497;-73
2022/01/27 06:44:14;;;;;;;26.83;16.70;;;0.10;99.90;;;;;;5031915;28;20051;-72
2022/01/27 06:46:40;;;;;;;25.45;15.65;;;0.10;99.90;;;;;;5032969;28;20021;-72
2022/01/27 06:49:06;;;;;;;28.08;16.98;;;0.10;99.90;;;;;;5032852;28;20028;-72
2022/01/27 06:51:32;;;;;;;29.17;16.63;;;0.10;99.90;;;;;;5033094;28;20022;-72
2022/01/27 06:53:58;;;;;;;30.13;17.27;;;0.00;99.90;;;;;;5032916;28;20088;-72
2022/01/27 06:56:27;;;;;;;27.42;16.38;;;0.10;99.90;;;;;;5033373;28;20717;-73
2022/01/27 06:58:53;;;;;;;27.52;16.75;;;0.20;99.90;;;;;;5033372;28;20091;-72
2022/01/27 07:01:19;;;;;;;29.98;16.67;;;0.20;99.90;;;;;;5032861;28;20037;-73
2022/01/27 07:03:45;;;;;;;27.60;17.10;;;0.20;99.90;;;;;;5032522;28;20038;-72
2022/01/27 07:06:12;;;;;;;27.40;17.25;;;0.30;99.90;;;;;;5033764;28;20110;-74
2022/01/27 07:08:38;;;;;;;29.80;17.10;;;0.20;99.90;;;;;;5035658;28;20017;-72
2022/01/27 07:11:04;;;;;;;30.55;19.35;;;0.30;99.90;;;;;;5037379;28;20033;-73
2022/01/27 07:13:29;;;;;;;29.25;18.00;;;0.20;99.90;;;;;;5037648;28;20159;-73
2022/01/27 07:15:56;;;;;;;34.67;19.40;;;0.20;99.90;;;;;;5036918;28;20053;-73
2022/01/27 07:18:22;;;;;;;32.33;18.92;;;0.30;99.90;;;;;;5037305;28;20048;-73
2022/01/27 07:20:47;;;;;;;30.35;17.48;;;0.40;99.90;;;;;;5038058;28;20026;-72
2022/01/27 07:23:13;;;;;;;40.58;21.58;;;0.30;99.90;;;;;;5036485;28;20029;-72
2022/01/27 07:25:39;;;;;;;40.90;22.13;;;0.20;99.90;;;;;;5035627;28;20048;-73
2022/01/27 07:28:04;;;;;;;45.20;23.67;;;0.10;99.90;;;;;;5036224;28;20036;-72
2022/01/27 07:30:30;;;;;;;42.17;23.10;;;0.10;99.90;;;;;;5040036;28;20021;-72
2022/01/27 07:32:56;;;;;;;43.35;23.40;;;0.00;99.90;;;;;;5047978;28;20025;-73
2022/01/27 07:35:21;;;;;;;41.05;19.52;;;0.00;99.90;;;;;;5045790;28;20044;-72
2022/01/27 07:37:47;;;;;;;41.67;22.35;;;0.10;99.90;;;;;;5045805;28;20029;-72
2022/01/27 07:40:13;;;;;;;46.92;24.27;;;0.10;99.90;;;;;;5054769;23;20054;-77
2022/01/27 07:42:40;;;;;;;43.30;22.33;;;0.10;99.90;;;;;;5040072;28;20017;-76
2022/01/27 07:45:07;;;;;;;37.92;22.15;;;0.10;99.90;;;;;;5036033;28;20026;-77
2022/01/27 07:47:34;;;;;;;43.28;21.58;;;0.20;99.90;;;;;;5054741;28;20034;-76
2022/01/27 07:49:59;;;;;;;43.17;21.73;;;0.20;99.90;;;;;;5041218;28;20033;-77
2022/01/27 07:52:25;;;;;;;46.17;19.42;;;0.20;99.90;;;;;;5040473;28;20089;-78
2022/01/27 07:54:51;;;;;;;39.38;19.02;;;0.10;99.90;;;;;;5056278;28;20098;-77
2022/01/27 07:57:17;;;;;;;43.70;21.45;;;-0.10;99.90;;;;;;5041235;28;20026;-77
2022/01/27 07:59:42;;;;;;;41.45;19.08;;;-0.20;99.90;;;;;;5041132;28;20017;-77
2022/01/27 08:02:08;;;;;;;38.22;20.05;;;-0.20;99.90;;;;;;5041592;28;20018;-77
2022/01/27 08:04:34;;;;;;;37.47;19.67;;;-0.20;99.90;;;;;;5041280;28;20038;-76
2022/01/27 08:07:02;;;;;;;39.45;21.35;;;-0.10;99.90;;;;;;5041322;28;20101;-77
2022/01/27 08:09:29;;;;;;;37.10;19.30;;;-0.20;99.90;;;;;;5041072;28;20037;-77
2022/01/27 08:11:55;;;;;;;40.45;19.58;;;-0.20;99.90;;;;;;5039709;28;20508;-76
2022/01/27 08:14:20;;;;;;;29.30;15.43;;;-0.10;99.90;;;;;;5039793;28;20101;-75
2022/01/27 08:16:46;;;;;;;39.42;20.02;;;-0.10;99.90;;;;;;5039897;28;20029;-77
2022/01/27 08:19:13;;;;;;;37.92;17.77;;;-0.10;99.90;;;;;;5039622;28;20038;-77
2022/01/27 08:21:39;;;;;;;34.80;17.75;;;-0.30;99.90;;;;;;5034271;28;20030;-77
2022/01/27 08:24:05;;;;;;;34.75;16.15;;;-0.30;99.90;;;;;;5039744;28;20026;-78
2022/01/27 08:26:38;;;;;;;43.30;18.83;;;-0.20;99.90;;;;;;5034003;28;20062;-77
2022/01/27 08:29:15;;;;;;;43.45;19.23;;;-0.20;99.90;;;;;;5032684;28;20053;-77
2022/01/27 08:31:53;;;;;;;44.13;21.30;;;-0.20;99.90;;;;;;5031987;28;20022;-77
2022/01/27 08:34:28;;;;;;;23.30;11.80;;;0.00;99.90;;;;;;5047259;28;20018;-77
2022/01/27 08:36:54;;;;;;;49.38;21.15;;;-0.20;99.90;;;;;;5031452;28;20022;-76
2022/01/27 08:39:20;;;;;;;39.72;19.75;;;-0.20;99.90;;;;;;5032467;28;20037;-77
2022/01/27 08:41:45;;;;;;;41.00;18.80;;;-0.10;99.90;;;;;;5032679;28;20032;-77
2022/01/27 08:44:11;;;;;;;36.30;17.65;;;0.10;99.90;;;;;;5034131;28;20030;-77
2022/01/27 08:46:37;;;;;;;44.63;20.65;;;0.00;99.90;;;;;;5031190;28;20037;-77
2022/01/27 08:49:03;;;;;;;41.20;19.17;;;-0.10;99.90;;;;;;5035500;28;20077;-76
2022/01/27 08:51:30;;;;;;;43.17;20.98;;;-0.10;99.90;;;;;;5052957;28;20109;-76
2022/01/27 08:53:56;;;;;;;41.72;19.42;;;0.00;99.90;;;;;;5031686;28;20026;-77
2022/01/27 08:56:22;;;;;;;42.10;20.85;;;-0.10;99.90;;;;;;5024087;28;20048;-77
2022/01/27 08:58:48;;;;;;;42.70;19.90;;;0.10;99.90;;;;;;5021822;28;20447;-77
2022/01/27 09:01:13;;;;;;;39.33;19.10;;;0.30;99.90;;;;;;5025230;28;20030;-76
2022/01/27 09:03:39;;;;;;;39.88;20.85;;;0.60;99.90;;;;;;5023032;28;20034;-77
2022/01/27 09:06:05;;;;;;;41.50;18.13;;;0.60;99.90;;;;;;5021570;28;20029;-77
2022/01/27 09:08:31;;;;;;;38.45;17.50;;;0.70;99.90;;;;;;5038402;28;20058;-78
2022/01/27 09:10:56;;;;;;;31.00;16.35;;;0.90;99.90;;;;;;5023729;28;20553;-77
2022/01/27 09:13:22;;;;;;;32.97;15.57;;;1.10;99.90;;;;;;5018666;28;20486;-76
2022/01/27 09:15:49;;;;;;;35.15;17.58;;;1.30;99.90;;;;;;5018786;28;20022;-77
2022/01/27 09:18:16;;;;;;;31.52;17.60;;;1.30;99.90;;;;;;5036805;28;20030;-79
2022/01/27 09:20:43;;;;;;;34.78;18.73;;;1.50;99.90;;;;;;5020332;28;20053;-78
2022/01/27 09:23:13;;;;;;;36.05;18.08;;;1.40;99.90;;;;;;5017822;28;20025;-78
2022/01/27 09:25:46;;;;;;;30.42;16.95;;;1.30;99.90;;;;;;5019512;28;20058;-77
2022/01/27 09:28:13;;;;;;;33.35;18.05;;;1.40;99.90;;;;;;5017945;28;20022;-77
2022/01/27 09:30:40;;;;;;;27.88;16.95;;;1.30;99.90;;;;;;5018182;28;20046;-78
2022/01/27 09:33:06;;;;;;;30.80;17.13;;;1.30;99.90;;;;;;5018953;28;20041;-78
2022/01/27 09:35:33;;;;;;;32.45;17.05;;;1.40;99.90;;;;;;5018359;28;20018;-77
2022/01/27 09:38:00;;;;;;;28.17;14.65;;;1.40;99.90;;;;;;5019221;28;20100;-78
2022/01/27 09:40:26;;;;;;;29.92;15.65;;;1.50;99.90;;;;;;5017777;28;20088;-79
2022/01/27 09:42:54;;;;;;;25.55;15.30;;;1.60;99.90;;;;;;5018100;28;20033;-78
2022/01/27 09:45:23;;;;;;;23.83;13.82;;;1.60;99.90;;;;;;5016973;28;20030;-78
2022/01/27 09:47:59;;;;;;;25.45;14.18;;;1.60;99.90;;;;;;5018348;28;20017;-77
2022/01/27 09:50:36;;;;;;;29.02;14.52;;;1.60;99.90;;;;;;5016507;28;20018;-76
2022/01/27 09:53:02;;;;;;;23.95;12.73;;;1.80;99.90;;;;;;5016311;28;20022;-77
2022/01/27 09:55:27;;;;;;;20.25;12.90;;;1.90;99.90;;;;;;5016847;28;20022;-77
2022/01/27 09:57:54;;;;;;;19.25;11.82;;;2.00;99.90;;;;;;5017212;28;20025;-76
2022/01/27 10:00:21;;;;;;;18.10;12.10;;;2.00;99.90;;;;;;5016769;28;20552;-76
2022/01/27 10:03:11;;;;;;;23.40;12.63;;;2.00;99.90;;;;;;5016609;28;20113;-77
2022/01/27 10:05:38;;;;;;;23.17;11.13;;;2.00;99.90;;;;;;5017040;28;20026;-77
2022/01/27 10:08:10;;;;;;;25.50;13.13;;;2.00;99.90;;;;;;5017306;28;20029;-76
2022/01/27 10:10:42;;;;;;;23.25;13.02;;;2.00;99.90;;;;;;5033310;28;20125;-78
2022/01/27 10:13:10;;;;;;;22.00;12.93;;;2.00;99.90;;;;;;5016923;28;20025;-77
2022/01/27 10:15:39;;;;;;;23.42;12.55;;;2.10;99.90;;;;;;5014851;28;20108;-77
2022/01/27 10:18:13;;;;;;;22.60;12.93;;;2.10;99.90;;;;;;5019208;28;20036;-78
2022/01/27 10:20:42;;;;;;;22.38;12.93;;;2.10;99.90;;;;;;5018885;28;20102;-77
2022/01/27 10:23:18;;;;;;;22.23;10.63;;;2.30;99.90;;;;;;5018110;28;20045;-78
2022/01/27 10:25:55;;;;;;;17.65;10.70;;;2.20;99.90;;;;;;5019402;28;20014;-77
2022/01/27 10:28:33;;;;;;;20.13;11.65;;;2.30;99.90;;;;;;5017505;28;20029;-77
2022/01/27 10:31:00;;;;;;;20.30;12.48;;;2.40;99.90;;;;;;5017628;28;20021;-77
2022/01/27 10:33:26;;;;;;;20.95;11.82;;;2.40;99.90;;;;;;5018945;28;20123;-77
2022/01/27 10:35:52;;;;;;;23.02;13.15;;;2.50;99.90;;;;;;5017231;28;20030;-77
2022/01/27 10:38:18;;;;;;;20.20;12.70;;;2.70;99.90;;;;;;5015395;28;20026;-77
2022/01/27 10:40:47;;;;;;;22.83;11.50;;;2.70;99.90;;;;;;5014150;28;20114;-78
2022/01/27 10:43:13;;;;;;;18.35;10.45;;;2.70;99.90;;;;;;5015412;28;20033;-77
2022/01/27 10:46:10;;;;;;;20.48;10.93;;;2.80;99.90;;;;;;5015599;28;20026;-77
2022/01/27 10:48:58;;;;;;;17.95;10.25;;;2.90;99.90;;;;;;5015358;28;20022;-77
2022/01/27 10:51:35;;;;;;;19.92;11.60;;;2.90;99.90;;;;;;5022342;28;20046;-76
2022/01/27 10:54:16;;;;;;;15.50;10.35;;;2.80;99.90;;;;;;5033015;28;20033;-77
2022/01/27 10:56:42;;;;;;;14.95;10.77;;;2.80;99.90;;;;;;5037239;28;20013;-77
2022/01/27 10:59:13;;;;;;;18.13;11.57;;;2.80;99.90;;;;;;5033333;28;20041;-76
2022/01/27 11:01:44;;;;;;;18.30;10.73;;;3.00;99.90;;;;;;5021802;28;20018;-77
2022/01/27 11:04:14;;;;;;;19.33;10.90;;;3.00;99.90;;;;;;5016484;28;20030;-77
2022/01/27 11:06:54;;;;;;;16.52;11.00;;;3.00;99.90;;;;;;5016711;28;20018;-77
2022/01/27 11:09:20;;;;;;;17.85;10.35;;;3.00;99.90;;;;;;5020985;28;20382;-78
2022/01/27 11:11:48;;;;;;;17.25;9.57;;;2.90;99.90;;;;;;5022810;28;20030;-76
2022/01/27 11:14:14;;;;;;;14.38;8.75;;;2.90;99.90;;;;;;5022391;28;20034;-78
2022/01/27 11:16:43;;;;;;;14.73;10.18;;;2.90;99.90;;;;;;5016750;28;20030;-78
2022/01/27 11:19:18;;;;;;;17.63;10.02;;;3.00;99.90;;;;;;5015927;28;20022;-77
2022/01/27 11:21:49;;;;;;;15.88;9.75;;;3.10;99.90;;;;;;5025941;28;20006;-78
2022/01/27 11:24:27;;;;;;;15.88;9.85;;;3.10;99.90;;;;;;5027313;28;20052;-76
2022/01/27 11:26:56;;;;;;;15.43;10.02;;;3.10;99.90;;;;;;5024185;28;20081;-77
2022/01/27 11:29:23;;;;;;;17.25;10.32;;;3.20;99.90;;;;;;5019044;28;20052;-77
2022/01/27 11:32:13;;;;;;;15.00;9.88;;;3.20;99.90;;;;;;5019764;28;20053;-76
2022/01/27 11:34:45;;;;;;;14.40;9.88;;;3.30;99.90;;;;;;5021222;28;20111;-77
2022/01/27 11:37:11;;;;;;;14.82;8.93;;;3.40;99.90;;;;;;5019557;28;20033;-78
2022/01/27 11:39:51;;;;;;;14.35;9.13;;;3.30;99.90;;;;;;5021349;28;20037;-77
2022/01/27 11:42:41;;;;;;;18.77;10.63;;;3.40;99.90;;;;;;5036545;28;20038;-77
2022/01/27 11:45:22;;;;;;;14.40;9.93;;;3.30;99.90;;;;;;5036258;28;20069;-77
2022/01/27 11:48:02;;;;;;;15.55;9.45;;;3.20;99.90;;;;;;5036563;28;20025;-77
2022/01/27 11:50:49;;;;;;;16.23;9.73;;;3.30;99.90;;;;;;5035871;28;20056;-77
2022/01/27 11:53:36;;;;;;;13.63;9.07;;;3.60;99.90;;;;;;5026226;28;20030;-77
2022/01/27 11:56:07;;;;;;;17.42;9.23;;;3.50;99.90;;;;;;5031958;28;20044;-77
2022/01/27 11:58:45;;;;;;;;;;;3.40;99.90;;;;;;5027815;28;20049;-78
2022/01/27 12:01:17;;;;;;;13.80;10.65;;;3.40;99.90;;;;;;5029387;28;19906;-77
2022/01/27 12:04:08;;;;;;;21.30;11.27;;;3.40;99.90;;;;;;5023189;28;20092;-77
2022/01/27 12:06:41;;;;;;;20.20;10.73;;;3.60;99.90;;;;;;5022977;28;20109;-77
2022/01/27 12:09:19;;;;;;;20.45;12.38;;;3.80;99.90;;;;;;5017700;28;20061;-77
2022/01/27 12:11:58;;;;;;;16.98;11.27;;;3.90;99.90;;;;;;5017794;28;20036;-76
2022/01/27 12:14:32;;;;;;;15.63;10.82;;;4.00;99.90;;;;;;5017850;28;20053;-77
2022/01/27 12:17:26;;;;;;;18.67;11.82;;;4.20;99.90;;;;;;5018280;28;20417;-77
2022/01/27 12:19:56;;;;;;;20.90;11.80;;;3.90;99.90;;;;;;5034152;28;20117;-77
2022/01/27 12:22:49;;;;;;;22.58;13.05;;;4.10;99.90;;;;;;5021960;28;20252;-79
2022/01/27 12:25:15;;;;;;;21.13;11.52;;;4.10;99.90;;;;;;5017463;28;20033;-77
2022/01/27 12:27:48;;;;;;;18.80;11.98;;;4.10;99.90;;;;;;5019605;28;20032;-77
2022/01/27 12:30:14;;;;;;;18.85;13.05;;;3.90;99.90;;;;;;5018002;28;20390;-78
2022/01/27 12:32:40;;;;;;;17.38;10.57;;;3.80;99.90;;;;;;5022933;28;20029;-77
2022/01/27 12:35:09;;;;;;;21.48;12.55;;;4.00;99.90;;;;;;5038170;28;20025;-77
2022/01/27 12:37:40;;;;;;;16.85;10.88;;;4.00;99.90;;;;;;5024839;28;20033;-78
2022/01/27 12:40:07;;;;;;;;;;;4.20;99.90;;;;;;5033115;28;20101;-77
2022/01/27 12:42:38;;;;;;;17.80;11.40;;;4.10;99.90;;;;;;5033807;28;19927;-77
2022/01/27 12:45:14;;;;;;;16.85;11.85;;;4.00;99.90;;;;;;5030289;28;20037;-77
2022/01/27 12:47:47;;;;;;;16.17;10.68;;;4.00;99.90;;;;;;5023542;28;20029;-78
2022/01/27 12:50:20;;;;;;;13.95;10.90;;;4.00;99.90;;;;;;5020701;28;20485;-77
2022/01/27 12:52:51;;;;;;;17.98;11.38;;;4.00;99.90;;;;;;5023465;28;20525;-77
2022/01/27 12:55:20;;;;;;;16.80;11.13;;;4.30;99.90;;;;;;5022637;28;20057;-77
2022/01/27 12:58:03;;;;;;;16.92;10.95;;;4.20;99.90;;;;;;5022317;28;20094;-77
2022/01/27 13:00:45;;;;;;;15.52;11.57;;;4.00;99.90;;;;;;5020853;28;20030;-75
2022/01/27 13:03:12;;;;;;;16.88;10.88;;;4.10;99.90;;;;;;5018733;28;20060;-76
2022/01/27 13:05:41;;;;;;;17.60;11.07;;;4.20;99.90;;;;;;5017707;28;20027;-77
2022/01/27 13:08:15;;;;;;;18.13;12.02;;;4.20;99.90;;;;;;5018606;28;20025;-77
2022/01/27 13:10:54;;;;;;;14.85;10.48;;;4.10;99.90;;;;;;5017544;28;20072;-78
2022/01/27 13:13:23;;;;;;;16.83;10.75;;;4.20;99.90;;;;;;5020369;28;20022;-77
2022/01/27 13:16:09;;;;;;;14.50;11.10;;;4.30;99.90;;;;;;5020614;28;20041;-77
2022/01/27 13:19:19;;;;;;;17.05;11.57;;;4.40;99.90;;;;;;5023934;28;20556;-77
2022/01/27 13:21:32;;;;;;;17.75;11.10;;;4.60;99.90;;;;;;5019751;28;20085;-78
2022/01/27 13:24:14;;;;;;;19.13;11.80;;;4.40;99.90;;;;;;5022309;28;20102;-78
2022/01/27 13:26:44;;;;;;;14.52;10.50;;;4.30;99.90;;;;;;5018561;28;20393;-78
2022/01/27 13:29:14;;;;;;;18.30;11.95;;;4.50;99.90;;;;;;5019621;28;20541;-77
2022/01/27 13:31:43;;;;;;;15.65;10.90;;;4.50;99.90;;;;;;5018364;28;20034;-77